createdAt,value
2018-09-30T00:02:19.055Z,20.70
2018-09-30T00:04:52.128Z,20.70
2018-09-30T00:07:24.529Z,20.70
2018-09-30T00:09:57.525Z,20.70
2018-09-30T00:12:30.560Z,20.70
2018-09-30T00:15:03.770Z,20.70
2018-09-30T00:17:36.703Z,20.70
2018-09-30T00:20:09.570Z,20.60
2018-09-30T00:22:42.039Z,20.50
2018-09-30T00:25:18.844Z,20.40
2018-09-30T00:27:52.237Z,20.30
2018-09-30T00:30:24.850Z,20.30
2018-09-30T00:32:57.277Z,20.30
2018-09-30T00:35:30.373Z,20.20
2018-09-30T00:38:03.039Z,20.20
2018-09-30T00:40:36.225Z,20.20
2018-09-30T00:43:08.896Z,20.20
2018-09-30T00:45:41.609Z,20.20
2018-09-30T00:48:14.057Z,20.00
2018-09-30T00:50:46.533Z,20.00
2018-09-30T00:53:19.121Z,19.90
2018-09-30T00:55:53.972Z,19.90
2018-09-30T01:01:47.428Z,19.90
2018-09-30T01:04:20.242Z,19.90
2018-09-30T01:06:52.965Z,19.90
2018-09-30T01:09:25.432Z,19.80
2018-09-30T01:11:59.171Z,19.80
2018-09-30T01:14:32.257Z,19.70
2018-09-30T01:17:05.011Z,19.80
2018-09-30T01:19:38.079Z,19.70
2018-09-30T01:22:10.863Z,19.70
2018-09-30T01:24:43.528Z,19.60
2018-09-30T01:27:16.430Z,19.50
2018-09-30T01:29:49.266Z,19.40
2018-09-30T01:32:21.985Z,19.30
2018-09-30T01:35:27.412Z,19.30
2018-09-30T01:38:00.536Z,19.30
2018-09-30T01:40:33.399Z,19.20
2018-09-30T01:43:06.167Z,19.20
2018-09-30T01:45:39.031Z,19.20
2018-09-30T01:48:11.836Z,19.10
2018-09-30T01:50:45.090Z,19.10
2018-09-30T01:53:18.354Z,19.10
2018-09-30T01:55:51.484Z,19.00
2018-09-30T01:58:24.817Z,18.90
2018-09-30T02:00:57.924Z,18.90
2018-09-30T02:03:31.168Z,18.90
2018-09-30T02:06:04.150Z,18.90
2018-09-30T02:08:37.511Z,18.90
2018-09-30T02:11:10.491Z,18.90
2018-09-30T02:13:43.624Z,18.90
2018-09-30T02:16:16.573Z,18.80
2018-09-30T02:18:49.695Z,18.80
2018-09-30T02:21:22.647Z,18.90
2018-09-30T02:23:55.773Z,18.90
2018-09-30T02:26:29.104Z,18.90
2018-09-30T02:29:02.482Z,18.90
2018-09-30T02:31:35.450Z,19.00
2018-09-30T02:34:08.475Z,19.00
2018-09-30T02:36:41.484Z,19.00
2018-09-30T02:39:14.704Z,19.10
2018-09-30T02:41:47.796Z,19.10
2018-09-30T02:44:20.637Z,19.10
2018-09-30T02:46:53.623Z,19.10
2018-09-30T02:49:26.745Z,19.10
2018-09-30T02:51:59.884Z,19.10
2018-09-30T02:54:33.291Z,19.20
2018-09-30T02:57:06.543Z,19.20
2018-09-30T02:59:39.504Z,19.10
2018-09-30T03:02:13.540Z,19.10
2018-09-30T03:04:46.649Z,19.10
2018-09-30T03:07:24.431Z,19.00
2018-09-30T03:09:58.382Z,18.90
2018-09-30T03:12:31.513Z,19.00
2018-09-30T03:15:05.035Z,18.90
2018-09-30T03:17:38.380Z,18.90
2018-09-30T03:20:11.167Z,18.90
2018-09-30T03:22:44.217Z,18.80
2018-09-30T03:25:17.320Z,18.80
2018-09-30T03:27:50.187Z,18.80
2018-09-30T03:30:23.693Z,18.80
2018-09-30T03:32:57.306Z,18.80
2018-09-30T03:39:00.687Z,18.70
2018-09-30T03:44:54.356Z,18.70
2018-09-30T03:47:26.763Z,18.70
2018-09-30T03:49:59.492Z,18.70
2018-09-30T03:52:32.857Z,18.70
2018-09-30T03:55:05.356Z,18.80
2018-09-30T03:57:39.302Z,18.80
2018-09-30T04:03:43.288Z,18.70
2018-09-30T04:12:23.958Z,18.50
2018-09-30T04:14:56.771Z,18.40
2018-09-30T04:17:29.039Z,18.30
2018-09-30T04:20:01.732Z,18.30
2018-09-30T04:22:34.193Z,18.20
2018-09-30T04:25:06.731Z,18.30
2018-09-30T04:27:39.342Z,18.30
2018-09-30T04:30:12.730Z,18.30
2018-09-30T04:32:46.962Z,18.20
2018-09-30T04:35:20.149Z,18.20
2018-09-30T04:37:54.667Z,18.10
2018-09-30T04:40:28.956Z,18.10
2018-09-30T04:43:02.645Z,18.00
2018-09-30T04:45:37.280Z,17.90
2018-09-30T04:48:15.307Z,17.80
2018-09-30T04:50:48.129Z,17.80
2018-09-30T04:53:20.746Z,17.70
2018-09-30T04:55:53.481Z,17.70
2018-09-30T04:58:26.277Z,17.70
2018-09-30T05:00:59.319Z,17.70
2018-09-30T05:03:32.200Z,17.70
2018-09-30T05:06:05.498Z,17.70
2018-09-30T05:08:37.906Z,17.70
2018-09-30T05:11:10.340Z,17.80
2018-09-30T05:13:42.699Z,17.80
2018-09-30T05:16:15.727Z,17.80
2018-09-30T05:18:49.146Z,17.80
2018-09-30T05:21:21.577Z,17.70
2018-09-30T05:23:54.322Z,17.80
2018-09-30T05:26:27.419Z,17.70
2018-09-30T05:29:00.461Z,17.70
2018-09-30T05:31:32.954Z,17.70
2018-09-30T05:34:05.723Z,17.70
2018-09-30T05:36:38.357Z,17.70
2018-09-30T05:39:12.753Z,17.70
2018-09-30T05:41:45.082Z,17.70
2018-09-30T05:44:17.773Z,17.70
2018-09-30T05:46:50.651Z,17.70
2018-09-30T05:49:23.426Z,17.70
2018-09-30T05:51:56.464Z,17.70
2018-09-30T05:54:29.541Z,17.70
2018-09-30T05:57:02.298Z,17.70
2018-09-30T05:59:35.336Z,17.80
2018-09-30T06:05:28.832Z,17.70
2018-09-30T06:08:01.611Z,17.60
2018-09-30T06:10:34.097Z,17.60
2018-09-30T06:13:06.643Z,17.60
2018-09-30T06:15:39.532Z,17.60
2018-09-30T06:18:12.839Z,17.60
2018-09-30T06:20:45.874Z,17.60
2018-09-30T06:23:18.577Z,17.50
2018-09-30T06:25:51.455Z,17.50
2018-09-30T06:31:45.336Z,17.50
2018-09-30T06:34:18.393Z,17.50
2018-09-30T06:36:51.197Z,17.40
2018-09-30T06:39:24.316Z,17.40
2018-09-30T06:41:57.369Z,17.40
2018-09-30T06:44:30.467Z,17.40
2018-09-30T06:47:03.301Z,17.30
2018-09-30T06:49:36.926Z,17.30
2018-09-30T06:55:31.461Z,17.30
2018-09-30T06:58:05.009Z,17.30
2018-09-30T07:00:38.443Z,17.30
2018-09-30T07:03:11.852Z,17.30
2018-09-30T07:05:45.431Z,17.20
2018-09-30T07:08:19.127Z,17.20
2018-09-30T07:10:52.413Z,17.10
2018-09-30T07:13:25.809Z,17.10
2018-09-30T07:15:59.329Z,17.00
2018-09-30T07:18:32.734Z,17.10
2018-09-30T07:21:05.953Z,16.90
2018-09-30T07:23:39.604Z,16.90
2018-09-30T07:26:13.002Z,16.90
2018-09-30T07:28:46.124Z,16.90
2018-09-30T07:31:19.757Z,16.90
2018-09-30T07:33:52.914Z,16.90
2018-09-30T07:36:26.073Z,16.90
2018-09-30T07:38:59.260Z,16.90
2018-09-30T07:41:32.492Z,16.90
2018-09-30T07:44:05.740Z,16.90
2018-09-30T07:46:39.529Z,17.00
2018-09-30T07:49:12.888Z,16.90
2018-09-30T07:51:45.826Z,16.90
2018-09-30T07:54:18.452Z,16.90
2018-09-30T07:56:51.139Z,16.90
2018-09-30T07:59:24.192Z,16.90
2018-09-30T08:01:58.369Z,16.90
2018-09-30T08:04:31.541Z,16.90
2018-09-30T08:07:04.937Z,16.90
2018-09-30T08:09:37.575Z,16.90
2018-09-30T08:12:10.267Z,16.80
2018-09-30T08:14:43.466Z,16.80
2018-09-30T08:17:16.123Z,16.90
2018-09-30T08:19:49.316Z,16.80
2018-09-30T08:22:21.996Z,16.80
2018-09-30T08:24:54.889Z,16.80
2018-09-30T08:27:27.552Z,16.80
2018-09-30T08:30:00.264Z,16.80
2018-09-30T08:32:33.458Z,16.80
2018-09-30T08:35:06.161Z,16.80
2018-09-30T08:37:43.365Z,16.80
2018-09-30T08:40:20.753Z,16.80
2018-09-30T08:42:54.157Z,16.70
2018-09-30T08:45:27.496Z,16.70
2018-09-30T08:48:00.611Z,16.70
2018-09-30T08:50:33.378Z,16.80
2018-09-30T08:53:06.049Z,16.70
2018-09-30T08:55:39.319Z,16.70
2018-09-30T08:58:11.975Z,16.70
2018-09-30T09:00:46.032Z,16.70
2018-09-30T09:03:18.717Z,16.70
2018-09-30T09:05:51.991Z,16.70
2018-09-30T09:08:25.288Z,16.60
2018-09-30T09:10:58.523Z,16.60
2018-09-30T09:13:31.578Z,16.60
2018-09-30T09:16:04.667Z,16.70
2018-09-30T09:18:37.901Z,16.70
2018-09-30T09:21:10.692Z,16.70
2018-09-30T09:23:43.511Z,16.60
2018-09-30T09:26:16.500Z,16.60
2018-09-30T09:28:49.814Z,16.60
2018-09-30T09:31:23.189Z,16.60
2018-09-30T09:33:56.485Z,16.60
2018-09-30T09:36:30.425Z,16.60
2018-09-30T09:39:04.041Z,16.60
2018-09-30T09:42:10.941Z,16.60
2018-09-30T09:44:44.942Z,16.60
2018-09-30T09:47:17.992Z,16.60
2018-09-30T09:49:50.444Z,16.60
2018-09-30T09:52:23.502Z,16.60
2018-09-30T09:54:56.558Z,16.60
2018-09-30T09:57:30.746Z,16.60
2018-09-30T10:00:03.919Z,16.60
2018-09-30T10:02:36.959Z,16.60
2018-09-30T10:05:10.782Z,16.60
2018-09-30T10:07:44.315Z,16.60
2018-09-30T10:10:18.091Z,16.70
2018-09-30T10:12:51.089Z,16.60
2018-09-30T10:15:24.137Z,16.60
2018-09-30T10:17:56.660Z,16.60
2018-09-30T10:20:29.181Z,16.50
2018-09-30T10:26:22.988Z,16.60
2018-09-30T10:28:56.056Z,16.50
2018-09-30T10:31:29.112Z,16.50
2018-09-30T10:34:02.001Z,16.50
2018-09-30T10:36:34.714Z,16.50
2018-09-30T10:39:09.812Z,16.50
2018-09-30T10:41:43.094Z,16.50
2018-09-30T10:44:15.901Z,16.50
2018-09-30T10:46:49.068Z,16.50
2018-09-30T10:49:21.519Z,16.50
2018-09-30T10:51:54.238Z,16.50
2018-09-30T10:54:27.238Z,16.50
2018-09-30T10:57:00.101Z,16.50
2018-09-30T10:59:32.450Z,16.50
2018-09-30T11:02:04.688Z,16.50
2018-09-30T11:04:37.063Z,16.50
2018-09-30T11:07:50.297Z,16.50
2018-09-30T11:10:23.113Z,16.40
2018-09-30T11:12:55.917Z,16.50
2018-09-30T11:15:28.604Z,16.40
2018-09-30T11:18:01.696Z,16.40
2018-09-30T11:20:34.863Z,16.40
2018-09-30T11:23:07.657Z,16.50
2018-09-30T11:25:40.749Z,16.40
2018-09-30T11:28:13.527Z,16.40
2018-09-30T11:30:45.845Z,16.40
2018-09-30T11:33:18.581Z,16.40
2018-09-30T11:35:51.358Z,16.40
2018-09-30T11:38:23.939Z,16.40
2018-09-30T11:40:56.392Z,16.30
2018-09-30T11:43:28.690Z,16.30
2018-09-30T11:49:21.882Z,16.30
2018-09-30T11:51:54.400Z,16.30
2018-09-30T11:54:26.843Z,16.30
2018-09-30T11:56:59.164Z,16.40
2018-09-30T11:59:31.589Z,16.40
2018-09-30T12:02:04.495Z,16.40
2018-09-30T12:04:38.059Z,16.30
2018-09-30T12:07:10.677Z,16.30
2018-09-30T12:09:43.373Z,16.30
2018-09-30T12:15:37.245Z,16.40
2018-09-30T12:18:11.196Z,16.30
2018-09-30T12:20:44.758Z,16.30
2018-09-30T12:23:17.304Z,16.30
2018-09-30T12:25:50.388Z,16.30
2018-09-30T12:28:23.132Z,16.20
2018-09-30T12:30:55.999Z,16.20
2018-09-30T12:33:28.765Z,16.20
2018-09-30T12:36:03.547Z,16.20
2018-09-30T12:38:42.676Z,16.20
2018-09-30T12:41:22.394Z,16.20
2018-09-30T12:44:02.587Z,16.20
2018-09-30T12:46:43.954Z,16.20
2018-09-30T12:49:22.717Z,16.20
2018-09-30T12:52:03.332Z,16.20
2018-09-30T12:54:40.026Z,16.20
2018-09-30T12:57:19.734Z,16.20
2018-09-30T12:59:59.376Z,16.20
2018-09-30T13:02:38.015Z,16.30
2018-09-30T13:05:16.569Z,16.40
2018-09-30T13:07:55.660Z,16.50
2018-09-30T13:10:34.787Z,16.60
2018-09-30T13:13:13.683Z,16.70
2018-09-30T13:15:52.813Z,17.10
2018-09-30T13:18:26.389Z,17.30
2018-09-30T13:21:06.090Z,17.40
2018-09-30T13:23:41.905Z,17.20
2018-09-30T13:26:19.251Z,17.00
2018-09-30T13:28:52.352Z,17.10
2018-09-30T13:31:53.576Z,17.30
2018-09-30T13:34:27.050Z,17.80
2018-09-30T13:36:59.708Z,18.20
2018-09-30T13:39:32.367Z,18.60
2018-09-30T13:42:05.803Z,19.30
2018-09-30T13:44:39.015Z,19.60
2018-09-30T13:47:12.043Z,19.60
2018-09-30T13:49:46.591Z,19.20
2018-09-30T13:52:19.280Z,19.40
2018-09-30T13:54:52.241Z,19.50
2018-09-30T13:57:25.037Z,20.00
2018-09-30T13:59:58.520Z,19.80
2018-09-30T14:02:31.604Z,19.60
2018-09-30T14:05:04.478Z,19.60
2018-09-30T14:10:57.676Z,19.30
2018-09-30T14:13:30.921Z,19.60
2018-09-30T14:16:04.366Z,19.50
2018-09-30T14:18:37.250Z,19.20
2018-09-30T14:21:12.160Z,19.00
2018-09-30T14:23:46.957Z,18.90
2018-09-30T14:26:21.973Z,18.80
2018-09-30T14:29:06.296Z,19.10
2018-09-30T14:31:40.950Z,19.50
2018-09-30T14:34:15.946Z,20.00
2018-09-30T14:36:51.159Z,20.00
2018-09-30T14:39:26.365Z,19.60
2018-09-30T14:42:04.303Z,19.30
2018-09-30T14:44:38.545Z,19.00
2018-09-30T14:47:13.770Z,19.00
2018-09-30T14:49:48.946Z,19.00
2018-09-30T14:52:24.805Z,19.40
2018-09-30T14:54:59.187Z,19.60
2018-09-30T14:57:33.267Z,20.10
2018-09-30T15:00:06.134Z,20.50
2018-09-30T15:02:39.296Z,21.10
2018-09-30T15:05:12.328Z,20.90
2018-09-30T15:07:45.124Z,20.80
2018-09-30T15:10:19.257Z,21.70
2018-09-30T15:12:52.340Z,21.70
2018-09-30T15:15:25.255Z,21.90
2018-09-30T15:17:58.292Z,21.70
2018-09-30T15:20:31.385Z,22.20
2018-09-30T15:23:04.751Z,22.00
2018-09-30T15:25:37.691Z,21.90
2018-09-30T15:28:10.637Z,22.20
2018-09-30T15:30:43.838Z,22.40
2018-09-30T15:33:16.731Z,22.60
2018-09-30T15:35:49.585Z,23.30
2018-09-30T15:38:22.657Z,23.00
2018-09-30T15:40:55.715Z,22.90
2018-09-30T15:43:28.840Z,22.50
2018-09-30T15:46:02.173Z,23.20
2018-09-30T15:48:34.928Z,23.10
2018-09-30T15:51:07.940Z,22.40
2018-09-30T15:53:42.117Z,22.40
2018-09-30T15:56:15.276Z,21.70
2018-09-30T15:58:48.521Z,22.10
2018-09-30T16:01:26.392Z,22.20
2018-09-30T16:04:00.270Z,22.20
2018-09-30T16:06:32.810Z,22.30
2018-09-30T16:09:06.711Z,23.10
2018-09-30T16:15:00.557Z,22.40
2018-09-30T16:17:33.531Z,22.50
2018-09-30T16:20:07.851Z,22.90
2018-09-30T16:22:41.053Z,22.90
2018-09-30T16:25:13.834Z,23.10
2018-09-30T16:27:47.140Z,23.00
2018-09-30T16:30:55.139Z,23.00
2018-09-30T16:33:28.154Z,23.50
2018-09-30T16:36:01.193Z,23.40
2018-09-30T16:38:34.204Z,23.50
2018-09-30T16:41:07.197Z,22.70
2018-09-30T16:43:40.174Z,22.70
2018-09-30T16:46:13.736Z,22.50
2018-09-30T16:48:47.428Z,22.00
2018-09-30T16:51:23.074Z,22.30
2018-09-30T16:53:56.209Z,22.40
2018-09-30T16:56:28.916Z,22.30
2018-09-30T16:59:01.782Z,22.70
2018-09-30T17:01:34.258Z,22.80
2018-09-30T17:04:07.319Z,22.50
2018-09-30T17:06:40.401Z,22.40
2018-09-30T17:09:12.994Z,22.80
2018-09-30T17:11:45.775Z,23.00
2018-09-30T17:14:18.826Z,23.90
2018-09-30T17:16:51.618Z,23.30
2018-09-30T17:19:25.249Z,23.00
2018-09-30T17:21:58.210Z,23.50
2018-09-30T17:24:30.894Z,22.90
2018-09-30T17:27:03.301Z,22.80
2018-09-30T17:29:36.783Z,23.50
2018-09-30T17:32:13.632Z,23.40
2018-09-30T17:34:46.368Z,24.20
2018-09-30T17:37:19.448Z,24.00
2018-09-30T17:39:52.352Z,24.40
2018-09-30T17:42:25.114Z,23.90
2018-09-30T17:44:58.221Z,23.70
2018-09-30T17:47:32.016Z,23.20
2018-09-30T17:50:04.869Z,23.70
2018-09-30T17:52:38.146Z,23.50
2018-09-30T17:55:11.117Z,23.60
2018-09-30T17:57:44.279Z,23.90
2018-09-30T18:00:17.291Z,24.00
2018-09-30T18:02:50.112Z,23.80
2018-09-30T18:05:23.147Z,23.90
2018-09-30T18:07:56.043Z,23.90
2018-09-30T18:10:28.812Z,24.20
2018-09-30T18:13:02.077Z,24.40
2018-09-30T18:15:34.918Z,23.80
2018-09-30T18:18:08.202Z,24.10
2018-09-30T18:20:40.980Z,23.20
2018-09-30T18:23:14.436Z,23.20
2018-09-30T18:25:47.346Z,23.40
2018-09-30T18:31:45.279Z,24.60
2018-09-30T18:34:18.519Z,23.80
2018-09-30T18:36:51.450Z,23.20
2018-09-30T18:39:24.500Z,23.00
2018-09-30T18:41:57.585Z,22.90
2018-09-30T18:44:30.470Z,22.60
2018-09-30T18:47:03.655Z,22.40
2018-09-30T18:49:37.403Z,22.70
2018-09-30T18:52:10.941Z,22.90
2018-09-30T18:54:44.417Z,23.50
2018-09-30T18:57:17.728Z,23.20
2018-09-30T18:59:50.920Z,22.90
2018-09-30T19:02:24.046Z,23.40
2018-09-30T19:04:57.164Z,23.50
2018-09-30T19:07:30.122Z,24.50
2018-09-30T19:10:03.217Z,23.60
2018-09-30T19:12:36.131Z,23.70
2018-09-30T19:15:08.919Z,23.20
2018-09-30T19:17:42.014Z,23.60
2018-09-30T19:20:15.038Z,23.90
2018-09-30T19:22:47.959Z,24.00
2018-09-30T19:25:21.449Z,24.50
2018-09-30T19:27:54.596Z,24.10
2018-09-30T19:30:27.882Z,24.40
2018-09-30T19:33:00.643Z,24.60
2018-09-30T19:35:34.039Z,24.30
2018-09-30T19:38:06.970Z,25.00
2018-09-30T19:40:39.897Z,25.10
2018-09-30T19:43:12.655Z,24.90
2018-09-30T19:45:45.375Z,24.30
2018-09-30T19:48:18.179Z,24.90
2018-09-30T19:50:51.052Z,24.20
2018-09-30T19:53:23.974Z,24.70
2018-09-30T19:55:57.435Z,24.70
2018-09-30T19:58:30.960Z,24.30
2018-09-30T20:01:03.920Z,24.90
2018-09-30T20:03:37.791Z,25.20
2018-09-30T20:06:11.051Z,24.70
2018-09-30T20:08:43.973Z,25.10
2018-09-30T20:11:16.897Z,25.60
2018-09-30T20:13:49.764Z,24.90
2018-09-30T20:16:22.240Z,25.00
2018-09-30T20:18:55.103Z,25.20
2018-09-30T20:21:27.592Z,24.60
2018-09-30T20:24:00.756Z,24.90
2018-09-30T20:26:33.706Z,25.10
2018-09-30T20:29:06.674Z,24.40
2018-09-30T20:35:06.889Z,24.90
2018-09-30T20:37:39.639Z,24.80
2018-09-30T20:40:12.498Z,24.90
2018-09-30T20:42:45.184Z,24.50
2018-09-30T20:45:18.477Z,24.40
2018-09-30T20:47:51.533Z,24.60
2018-09-30T20:50:24.695Z,24.20
2018-09-30T20:52:57.343Z,24.40
2018-09-30T20:55:30.772Z,24.40
2018-09-30T20:58:03.388Z,24.40
2018-09-30T21:00:36.386Z,24.30
2018-09-30T21:03:09.532Z,24.40
2018-09-30T21:06:25.215Z,24.60
2018-09-30T21:08:58.099Z,25.00
2018-09-30T21:11:30.762Z,25.00
2018-09-30T21:14:03.551Z,24.40
2018-09-30T21:16:37.173Z,24.40
2018-09-30T21:19:09.721Z,24.90
2018-09-30T21:21:43.389Z,24.60
2018-09-30T21:24:15.959Z,24.60
2018-09-30T21:26:48.698Z,24.80
2018-09-30T21:29:21.406Z,24.50
2018-09-30T21:31:54.604Z,23.90
2018-09-30T21:34:27.118Z,23.80
2018-09-30T21:36:59.987Z,24.10
2018-09-30T21:39:33.062Z,24.30
2018-09-30T21:42:06.481Z,24.30
2018-09-30T21:44:39.531Z,24.00
2018-09-30T21:47:12.481Z,23.50
2018-09-30T21:49:45.571Z,23.20
2018-09-30T21:52:18.687Z,23.30
2018-09-30T21:54:51.578Z,22.90
2018-09-30T21:57:24.811Z,22.80
2018-09-30T21:59:57.624Z,22.70
2018-09-30T22:02:30.946Z,22.70
2018-09-30T22:05:03.522Z,22.30
2018-09-30T22:07:36.930Z,22.20
2018-09-30T22:10:09.581Z,22.20
2018-09-30T22:12:42.375Z,22.20
2018-09-30T22:15:15.343Z,22.30
2018-09-30T22:17:48.232Z,22.80
2018-09-30T22:20:20.918Z,22.80
2018-09-30T22:22:53.883Z,22.60
2018-09-30T22:25:26.713Z,22.70
2018-09-30T22:27:59.278Z,22.40
2018-09-30T22:30:32.114Z,22.40
2018-09-30T22:33:05.576Z,22.50
2018-09-30T22:35:38.411Z,22.30
2018-09-30T22:41:32.142Z,22.50
2018-09-30T22:44:04.959Z,22.30
2018-09-30T22:46:38.241Z,22.30
2018-09-30T22:49:11.230Z,22.00
2018-09-30T22:51:44.296Z,21.90
2018-09-30T22:54:17.325Z,21.80
2018-09-30T22:56:50.190Z,21.80
2018-09-30T23:02:47.944Z,21.50
2018-09-30T23:05:21.096Z,21.30
2018-09-30T23:07:54.280Z,21.30
2018-09-30T23:10:27.384Z,21.20
2018-09-30T23:13:00.772Z,21.10
2018-09-30T23:15:43.692Z,21.10
2018-09-30T23:18:18.947Z,21.10
2018-09-30T23:20:52.266Z,21.10
2018-09-30T23:23:25.419Z,21.10
2018-09-30T23:25:58.938Z,21.00
2018-09-30T23:28:31.813Z,20.70
2018-09-30T23:31:04.837Z,20.60
2018-09-30T23:33:37.791Z,20.60
2018-09-30T23:36:11.092Z,20.50
2018-09-30T23:38:44.069Z,20.40
2018-09-30T23:41:17.383Z,20.40
2018-09-30T23:43:53.853Z,20.40
2018-09-30T23:46:27.145Z,20.40
2018-09-30T23:49:02.006Z,20.30
2018-09-30T23:51:35.168Z,20.30
2018-09-30T23:54:08.320Z,20.30
2018-09-30T23:56:43.758Z,20.30
2018-09-30T23:59:16.872Z,20.20
